Regina, Saskatchewan

11:45 PM CST on October 24, 2014 (GMT -0600)
Regina | Change Station
CLOSE
Current Station
Airport
Location: Regina,
Elevation: 1893 ft
Nearby Weather Stations

Elev 1893 ft 50.43 °N, 104.67 °W | Updated 45 minutes ago

Clear
Clear
34 °F
Feels Like 30 °F
N
5
Wind Variable Wind from WNW

Today
High -- | Low -- °F
--% Chance of Precip.
Yesterday
High -- | Low -- °F
Precip. -- in
7:36 AM 5:48 PM
New Moon, 2% visible
Pressure 30.06 in
Visibility 15.0 miles
Clouds Clear
Windchill 30 °F
Dew Point 30 °F
Humidity 87%
Rainfall 0.00 in
Snow Depth Not available.
UV 0 out of 12
Pollen Not available.
Air Quality Not available.
Flu Activity Not available.
METAR CYQR 250500Z 29004KT 15SM SKC 01/M01 A3000 RMK SLP179

More Conditions Fewer Conditions

Pressure 30.06 in
Visibility 15.0 miles
Clouds Clear
Windchill 30 °F
Dew Point 30 °F
Humidity 87%
Rainfall 0.00 in
Snow Depth Not available.
UV 0 out of 12
Pollen Not available.
Air Quality Not available.
Flu Activity Not available.
METAR CYQR 250500Z 29004KT 15SM SKC 01/M01 A3000 RMK SLP179

More Conditions Fewer Conditions

10-Day Weather Forecast

Almanac

Astronomy

Oct. 24, 2014 Rise Set
Actual Time 7:36 AM CST 5:48 PM CST
Civil Twilight 7:02 AM CST 6:22 PM CST
Nautical Twilight 6:24 AM CST 7:00 PM CST
Astronomical Twilight 5:46 AM CST 7:37 PM CST
Moon 8:21 AM CST (10/24) 6:25 PM CST (10/24)
Length of Visible Light 11h 19m
Length of Day
10h 12m
Tomorrow will be 3m 35s shorter.
New Moon, 2% of the Moon is Illuminated
Oct 25
New Moon
Oct 30
First Quarter
Nov 6
Full
Nov 14
Last Quarter
Nov 22
New

Today's Extremes

Country Highs Country Lows

Community

WunderPhotos

Upload Photos

1,764,785 photos uploaded!

Nearby

Snow Depth

Not available.

Earthquake Activity

City Distance Mag. Time & Date
No recent earthquake activity has been reported nearby.
Minimum magnitude displayed is 2.5.

Coastal Water Temperatures

Place Temperature
No Stations Reporting

Nearby Weather Stations